createdAt,value
2024-02-19T00:00:14.218Z,14.73
2024-02-19T00:02:41.013Z,10.68
2024-02-19T00:05:08.338Z,15.18
2024-02-19T00:07:35.283Z,13.75
2024-02-19T00:10:02.562Z,15.35
2024-02-19T00:12:29.443Z,10.77
2024-02-19T00:14:56.245Z,15.15
2024-02-19T00:17:23.205Z,13.60
2024-02-19T00:19:50.152Z,9.77
2024-02-19T00:22:17.067Z,13.88
2024-02-19T00:24:43.948Z,10.55
2024-02-19T00:27:10.787Z,20.08
2024-02-19T00:29:37.534Z,16.60
2024-02-19T00:32:04.464Z,15.43
2024-02-19T00:34:31.236Z,19.77
2024-02-19T00:36:58.149Z,13.65
2024-02-19T00:39:25.109Z,13.32
2024-02-19T00:41:51.892Z,20.05
2024-02-19T00:44:18.693Z,16.40
2024-02-19T00:46:45.452Z,15.60
2024-02-19T00:49:12.308Z,16.35
2024-02-19T00:51:39.150Z,15.57
2024-02-19T00:54:05.927Z,15.13
2024-02-19T00:56:32.811Z,11.65
2024-02-19T00:58:59.694Z,19.88
2024-02-19T01:01:26.599Z,12.52
2024-02-19T01:03:53.574Z,16.33
2024-02-19T01:06:20.477Z,14.85
2024-02-19T01:08:47.247Z,12.07
2024-02-19T01:11:14.184Z,12.52
2024-02-19T01:13:41.066Z,16.13
2024-02-19T01:16:09.586Z,18.05
2024-02-19T01:18:37.224Z,16.75
2024-02-19T01:21:04.638Z,14.98
2024-02-19T01:23:31.381Z,14.88
2024-02-19T01:25:58.213Z,10.30
2024-02-19T01:28:25.195Z,10.77
2024-02-19T01:30:52.129Z,12.57
2024-02-19T01:33:18.947Z,10.32
2024-02-19T01:35:46.146Z,13.13
2024-02-19T01:38:13.233Z,15.32
2024-02-19T01:40:40.036Z,14.07
2024-02-19T01:43:08.467Z,17.33
2024-02-19T01:45:35.515Z,13.65
2024-02-19T01:48:03.263Z,13.77
2024-02-19T01:50:33.665Z,14.90
2024-02-19T01:53:01.776Z,10.88
2024-02-19T01:55:28.576Z,10.35
2024-02-19T01:57:55.799Z,14.65
2024-02-19T02:00:22.656Z,9.68
2024-02-19T02:02:49.431Z,14.40
2024-02-19T02:05:16.722Z,10.70
2024-02-19T02:07:45.100Z,12.00
2024-02-19T02:10:11.950Z,14.65
2024-02-19T02:12:39.004Z,11.20
2024-02-19T02:15:06.361Z,9.38
2024-02-19T02:17:33.976Z,9.85
2024-02-19T02:20:00.920Z,11.60
2024-02-19T02:22:27.883Z,8.82
2024-02-19T02:24:54.771Z,11.93
2024-02-19T02:27:21.588Z,15.70
2024-02-19T02:29:48.411Z,12.27
2024-02-19T02:32:15.242Z,14.68
2024-02-19T02:34:42.090Z,16.30
2024-02-19T02:37:08.899Z,9.93
2024-02-19T02:39:35.754Z,10.30
2024-02-19T02:42:02.766Z,15.68
2024-02-19T02:44:29.618Z,14.80
2024-02-19T02:46:56.469Z,12.68
2024-02-19T02:49:23.330Z,10.50
2024-02-19T02:51:50.174Z,8.18
2024-02-19T02:54:16.988Z,12.48
2024-02-19T02:56:43.997Z,10.45
2024-02-19T02:59:10.758Z,16.95
2024-02-19T03:01:37.620Z,12.20
2024-02-19T03:04:04.664Z,8.68
2024-02-19T03:06:31.541Z,9.85
2024-02-19T03:08:58.413Z,13.48
2024-02-19T03:11:25.507Z,11.00
2024-02-19T03:13:52.676Z,12.13
2024-02-19T03:16:19.694Z,11.38
2024-02-19T03:18:47.134Z,11.75
2024-02-19T03:21:17.084Z,14.27
2024-02-19T03:23:53.520Z,13.07
2024-02-19T03:26:34.600Z,8.68
2024-02-19T03:29:13.130Z,9.80
2024-02-19T03:31:43.711Z,13.48
2024-02-19T03:34:10.947Z,16.95
2024-02-19T03:36:38.198Z,13.75
2024-02-19T03:39:05.882Z,11.65
2024-02-19T03:41:33.174Z,10.98
2024-02-19T03:44:00.592Z,9.77
2024-02-19T03:46:27.608Z,8.43
2024-02-19T03:48:56.631Z,14.70
2024-02-19T03:51:23.936Z,8.20
2024-02-19T03:53:50.820Z,8.18
2024-02-19T03:56:18.836Z,12.02
2024-02-19T03:58:46.150Z,9.52
2024-02-19T04:01:13.457Z,10.05
2024-02-19T04:03:40.430Z,10.48
2024-02-19T04:06:07.458Z,6.57
2024-02-19T04:08:34.345Z,9.50
2024-02-19T04:11:01.177Z,9.13
2024-02-19T04:13:27.960Z,12.80
2024-02-19T04:15:56.152Z,10.02
2024-02-19T04:18:23.480Z,9.60
2024-02-19T04:20:50.362Z,11.40
2024-02-19T04:23:17.112Z,14.10
2024-02-19T04:25:43.891Z,10.13
2024-02-19T04:28:10.668Z,8.25
2024-02-19T04:30:37.719Z,7.47
2024-02-19T04:33:05.983Z,6.60
2024-02-19T04:35:32.867Z,11.70
2024-02-19T04:37:59.646Z,10.68
2024-02-19T04:40:26.488Z,10.63
2024-02-19T04:42:53.284Z,9.27
2024-02-19T04:45:20.052Z,8.60
2024-02-19T04:47:46.796Z,12.93
2024-02-19T04:50:13.825Z,11.52
2024-02-19T04:52:40.729Z,8.40
2024-02-19T04:55:07.903Z,9.85
2024-02-19T04:57:34.713Z,6.38
2024-02-19T05:00:01.564Z,15.75
2024-02-19T05:02:28.383Z,10.35
2024-02-19T05:04:55.385Z,10.43
2024-02-19T05:07:22.405Z,8.65
2024-02-19T05:09:49.721Z,11.05
2024-02-19T05:12:16.494Z,11.95
2024-02-19T05:14:43.796Z,11.52
2024-02-19T05:17:10.577Z,10.15
2024-02-19T05:19:37.493Z,7.00
2024-02-19T05:22:04.554Z,13.18
2024-02-19T05:24:32.279Z,15.55
2024-02-19T05:26:59.201Z,8.68
2024-02-19T05:29:26.188Z,8.68
2024-02-19T05:31:53.129Z,6.53
2024-02-19T05:34:20.669Z,9.23
2024-02-19T05:36:48.325Z,7.45
2024-02-19T05:39:15.287Z,8.40
2024-02-19T05:41:42.555Z,11.40
2024-02-19T05:44:10.742Z,9.82
2024-02-19T05:46:37.834Z,8.30
2024-02-19T05:49:04.836Z,12.57
2024-02-19T05:51:31.802Z,10.95
2024-02-19T05:53:58.571Z,8.07
2024-02-19T05:56:27.309Z,11.85
2024-02-19T05:58:54.084Z,9.68
2024-02-19T06:01:21.045Z,14.48
2024-02-19T06:03:47.961Z,10.43
2024-02-19T06:06:15.003Z,12.63
2024-02-19T06:08:41.941Z,13.05
2024-02-19T06:11:09.270Z,11.45
2024-02-19T06:13:36.125Z,14.10
2024-02-19T06:16:03.068Z,17.67
2024-02-19T06:18:30.171Z,10.13
2024-02-19T06:20:56.970Z,19.15
2024-02-19T06:23:24.321Z,10.95
2024-02-19T06:25:54.195Z,13.13
2024-02-19T06:28:21.463Z,16.17
2024-02-19T06:30:48.402Z,19.67
2024-02-19T06:33:16.889Z,12.95
2024-02-19T06:35:43.905Z,13.30
2024-02-19T06:38:10.666Z,12.57
2024-02-19T06:40:37.454Z,16.95
2024-02-19T06:43:04.436Z,8.98
2024-02-19T06:45:31.252Z,9.10
2024-02-19T06:47:58.112Z,13.73
2024-02-19T06:50:25.364Z,11.00
2024-02-19T06:52:52.105Z,17.45
2024-02-19T06:55:19.080Z,9.75
2024-02-19T06:57:46.046Z,14.82
2024-02-19T07:00:13.617Z,12.60
2024-02-19T07:02:40.666Z,13.27
2024-02-19T07:05:09.050Z,7.70
2024-02-19T07:07:37.443Z,8.65
2024-02-19T07:10:05.180Z,13.23
2024-02-19T07:12:32.203Z,13.10
2024-02-19T07:14:59.420Z,7.28
2024-02-19T07:17:27.651Z,10.73
2024-02-19T07:19:54.760Z,8.90
2024-02-19T07:22:22.039Z,10.38
2024-02-19T07:24:49.130Z,9.38
2024-02-19T07:27:15.957Z,10.57
2024-02-19T07:29:43.163Z,10.02
2024-02-19T07:32:10.176Z,11.80
2024-02-19T07:34:38.433Z,10.85
2024-02-19T07:37:06.132Z,6.65
2024-02-19T07:39:32.986Z,8.30
2024-02-19T07:42:00.011Z,12.75
2024-02-19T07:44:27.044Z,10.95
2024-02-19T07:46:53.857Z,11.68
2024-02-19T07:49:21.098Z,7.50
2024-02-19T07:51:48.001Z,5.75
2024-02-19T07:54:14.902Z,9.85
2024-02-19T07:56:41.674Z,6.28
2024-02-19T07:59:08.465Z,18.45
2024-02-19T08:01:35.435Z,8.52
2024-02-19T08:04:02.530Z,13.30
2024-02-19T08:06:30.347Z,10.30
2024-02-19T08:08:57.185Z,10.98
2024-02-19T08:11:24.609Z,11.85
2024-02-19T08:13:52.530Z,16.98
2024-02-19T08:16:19.558Z,9.00
2024-02-19T08:18:46.537Z,6.43
2024-02-19T08:21:14.285Z,11.25
2024-02-19T08:23:41.171Z,18.27
2024-02-19T08:26:08.033Z,10.52
2024-02-19T08:28:34.947Z,12.25
2024-02-19T08:31:01.948Z,11.45
2024-02-19T08:33:29.043Z,11.95
2024-02-19T08:35:55.908Z,11.82
2024-02-19T08:38:22.749Z,15.48
2024-02-19T08:40:49.553Z,7.05
2024-02-19T08:43:17.148Z,13.02
2024-02-19T08:45:44.105Z,19.75
2024-02-19T08:48:11.100Z,15.05
2024-02-19T08:50:38.185Z,19.77
2024-02-19T08:53:05.055Z,12.40
2024-02-19T08:55:35.881Z,9.77
2024-02-19T08:58:02.760Z,14.23
2024-02-19T09:00:33.735Z,12.80
2024-02-19T09:03:00.941Z,13.13
2024-02-19T09:05:28.326Z,18.80
2024-02-19T09:07:57.948Z,15.68
2024-02-19T09:10:24.870Z,11.80
2024-02-19T09:12:51.640Z,15.27
2024-02-19T09:15:20.768Z,13.85
2024-02-19T09:17:47.632Z,12.43
2024-02-19T09:20:14.536Z,18.33
2024-02-19T09:22:44.189Z,15.45
2024-02-19T09:25:11.151Z,18.55
2024-02-19T09:27:38.008Z,21.00
2024-02-19T09:30:05.196Z,16.80
2024-02-19T09:32:32.034Z,12.70
2024-02-19T09:34:58.929Z,18.55
2024-02-19T09:37:26.771Z,16.88
2024-02-19T09:39:59.682Z,16.15
2024-02-19T09:42:27.876Z,17.10
2024-02-19T09:44:55.029Z,22.90
2024-02-19T09:47:22.253Z,14.45
2024-02-19T09:49:49.828Z,21.05
2024-02-19T09:52:26.931Z,25.52
2024-02-19T09:54:56.167Z,10.02
2024-02-19T09:57:23.241Z,10.43
2024-02-19T09:59:50.220Z,19.33
2024-02-19T10:02:20.865Z,21.23
2024-02-19T10:04:51.012Z,21.95
2024-02-19T10:07:19.557Z,17.92
2024-02-19T10:09:49.551Z,14.95
2024-02-19T10:12:20.576Z,14.50
2024-02-19T10:14:47.383Z,22.60
2024-02-19T10:17:21.312Z,20.23
2024-02-19T10:22:18.202Z,19.92
2024-02-19T10:24:45.206Z,13.88
2024-02-19T10:27:11.998Z,21.00
2024-02-19T10:29:38.929Z,19.08
2024-02-19T10:32:05.917Z,14.52
2024-02-19T10:34:32.825Z,12.95
2024-02-19T10:37:00.197Z,20.48
2024-02-19T10:39:28.860Z,17.73
2024-02-19T10:41:55.681Z,16.58
2024-02-19T10:44:22.953Z,12.63
2024-02-19T10:46:49.787Z,16.98
2024-02-19T10:49:20.793Z,16.30
2024-02-19T10:51:48.026Z,16.27
2024-02-19T10:54:18.116Z,23.00
2024-02-19T10:56:45.519Z,22.65
2024-02-19T10:59:13.084Z,18.08
2024-02-19T11:01:47.845Z,12.15
2024-02-19T11:04:18.369Z,23.83
2024-02-19T11:06:58.592Z,16.42
2024-02-19T11:09:31.041Z,19.38
2024-02-19T11:11:59.982Z,17.88
2024-02-19T11:14:29.243Z,14.30
2024-02-19T11:16:58.110Z,13.45
2024-02-19T11:19:25.909Z,12.38
2024-02-19T11:22:10.381Z,15.90
2024-02-19T11:24:37.644Z,18.33
2024-02-19T11:27:08.258Z,18.55
2024-02-19T11:29:43.493Z,14.55
2024-02-19T11:32:19.783Z,22.60
2024-02-19T11:34:48.266Z,11.32
2024-02-19T11:37:15.295Z,8.68
2024-02-19T11:39:44.018Z,10.63
2024-02-19T11:42:13.398Z,13.32
2024-02-19T11:44:40.400Z,9.77
2024-02-19T11:47:09.004Z,14.60
2024-02-19T11:49:36.080Z,11.27
2024-02-19T11:52:10.856Z,16.45
2024-02-19T11:54:39.861Z,10.77
2024-02-19T11:57:08.852Z,21.25
2024-02-19T11:59:38.845Z,14.82
2024-02-19T12:02:10.842Z,8.30
2024-02-19T12:04:38.630Z,9.20
2024-02-19T12:07:06.771Z,6.55
2024-02-19T12:09:33.560Z,11.48
2024-02-19T12:12:01.668Z,20.40
2024-02-19T12:14:28.589Z,6.03
2024-02-19T12:16:56.385Z,8.95
2024-02-19T12:19:23.298Z,3.88
2024-02-19T12:21:50.890Z,7.75
2024-02-19T12:24:17.938Z,8.73
2024-02-19T12:26:45.829Z,8.02
2024-02-19T12:29:13.809Z,7.45
2024-02-19T12:31:40.614Z,7.18
2024-02-19T12:34:07.686Z,10.70
2024-02-19T12:36:34.647Z,9.10
2024-02-19T12:39:02.444Z,9.02
2024-02-19T12:41:29.428Z,8.52
2024-02-19T12:43:57.171Z,11.40
2024-02-19T12:46:25.425Z,9.45
2024-02-19T12:48:52.851Z,15.07
2024-02-19T12:51:20.036Z,10.40
2024-02-19T12:53:46.910Z,10.73
2024-02-19T12:56:13.871Z,8.60
2024-02-19T12:58:40.731Z,9.02
2024-02-19T13:01:20.298Z,9.15
2024-02-19T13:03:54.657Z,12.60
2024-02-19T13:06:21.880Z,8.13
2024-02-19T13:08:49.143Z,4.40
2024-02-19T13:11:18.030Z,9.63
2024-02-19T13:13:45.098Z,4.65
2024-02-19T13:16:15.697Z,9.35
2024-02-19T13:18:43.065Z,9.05
2024-02-19T13:21:10.169Z,9.18
2024-02-19T13:23:37.480Z,8.25
2024-02-19T13:26:04.942Z,8.90
2024-02-19T13:28:32.210Z,8.00
2024-02-19T13:30:59.432Z,9.15
2024-02-19T13:33:26.509Z,10.85
2024-02-19T13:35:53.776Z,7.18
2024-02-19T13:38:22.789Z,8.40
2024-02-19T13:40:51.184Z,9.32
2024-02-19T13:43:18.376Z,11.07
2024-02-19T13:46:00.473Z,14.07
2024-02-19T13:48:28.013Z,11.73
2024-02-19T13:50:58.321Z,8.43
2024-02-19T13:53:28.716Z,18.17
2024-02-19T13:55:56.224Z,7.32
2024-02-19T13:58:23.635Z,10.85
2024-02-19T14:00:51.061Z,5.75
2024-02-19T14:03:18.037Z,12.63
2024-02-19T14:05:45.989Z,7.05
2024-02-19T14:08:13.872Z,7.38
2024-02-19T14:10:40.886Z,11.00
2024-02-19T14:13:07.852Z,13.77
2024-02-19T14:15:34.687Z,9.70
2024-02-19T14:18:01.519Z,7.82
2024-02-19T14:20:28.418Z,9.82
2024-02-19T14:22:55.170Z,11.80
2024-02-19T14:25:22.206Z,14.65
2024-02-19T14:27:52.281Z,9.52
2024-02-19T14:30:21.946Z,10.77
2024-02-19T14:32:48.942Z,9.35
2024-02-19T14:35:16.225Z,8.10
2024-02-19T14:37:44.514Z,15.18
2024-02-19T14:40:14.869Z,13.25
2024-02-19T14:42:42.670Z,11.43
2024-02-19T14:45:09.838Z,12.73
2024-02-19T14:47:38.399Z,10.32
2024-02-19T14:50:09.453Z,11.00
2024-02-19T14:52:37.118Z,14.55
2024-02-19T14:55:15.446Z,9.48
2024-02-19T14:57:43.832Z,8.38
2024-02-19T15:00:11.519Z,10.75
2024-02-19T15:02:39.344Z,10.15
2024-02-19T15:05:08.590Z,22.15
2024-02-19T15:07:36.329Z,10.30
2024-02-19T15:10:03.669Z,9.02
2024-02-19T15:12:30.650Z,9.07
2024-02-19T15:14:57.525Z,13.93
2024-02-19T15:17:24.328Z,16.42
2024-02-19T15:19:51.229Z,14.65
2024-02-19T15:22:18.271Z,13.93
2024-02-19T15:24:45.207Z,12.00
2024-02-19T15:27:12.222Z,19.25
2024-02-19T15:29:39.425Z,13.43
2024-02-19T15:32:11.360Z,18.05
2024-02-19T15:34:38.562Z,16.83
2024-02-19T15:37:05.519Z,8.82
2024-02-19T15:39:32.373Z,23.90
2024-02-19T15:41:59.189Z,14.32
2024-02-19T15:44:26.126Z,31.30
2024-02-19T15:46:53.329Z,18.35
2024-02-19T15:49:20.992Z,11.40
2024-02-19T15:51:48.046Z,14.10
2024-02-19T15:54:14.943Z,15.13
2024-02-19T15:56:41.788Z,17.95
2024-02-19T15:59:08.628Z,16.35
2024-02-19T16:01:36.579Z,16.77
2024-02-19T16:04:04.400Z,11.07
2024-02-19T16:06:32.568Z,11.82
2024-02-19T16:09:00.702Z,12.90
2024-02-19T16:11:27.554Z,19.15
2024-02-19T16:13:55.260Z,11.18
2024-02-19T16:16:22.092Z,12.73
2024-02-19T16:18:49.151Z,17.33
2024-02-19T16:21:16.251Z,11.02
2024-02-19T16:23:43.952Z,13.05
2024-02-19T16:26:12.156Z,16.98
2024-02-19T16:28:42.794Z,13.82
2024-02-19T16:31:12.045Z,13.82
2024-02-19T16:33:42.924Z,11.77
2024-02-19T16:36:09.960Z,16.52
2024-02-19T16:38:40.768Z,13.52
2024-02-19T16:41:08.171Z,10.30
2024-02-19T16:43:35.598Z,15.80
2024-02-19T16:46:03.804Z,11.07
2024-02-19T16:48:38.069Z,16.08
2024-02-19T16:51:06.039Z,16.77
2024-02-19T16:53:36.079Z,12.27
2024-02-19T16:56:03.923Z,22.92
2024-02-19T16:58:33.731Z,17.30
2024-02-19T17:01:03.580Z,15.25
2024-02-19T17:03:30.707Z,16.75
2024-02-19T17:05:58.033Z,15.60
2024-02-19T17:08:28.425Z,14.93
2024-02-19T17:10:56.189Z,18.83
2024-02-19T17:13:23.530Z,14.45
2024-02-19T17:15:50.510Z,14.80
2024-02-19T17:18:17.982Z,10.38
2024-02-19T17:20:45.250Z,12.95
2024-02-19T17:23:15.368Z,20.98
2024-02-19T17:25:42.507Z,14.30
2024-02-19T17:28:09.596Z,19.25
2024-02-19T17:30:36.549Z,10.63
2024-02-19T17:33:03.759Z,11.50
2024-02-19T17:35:31.368Z,12.30
2024-02-19T17:37:58.277Z,17.45
2024-02-19T17:40:25.594Z,13.20
2024-02-19T17:42:52.774Z,13.52
2024-02-19T17:45:19.650Z,12.20
2024-02-19T17:47:51.514Z,20.45
2024-02-19T17:50:20.520Z,16.83
2024-02-19T17:52:48.645Z,16.55
2024-02-19T17:55:17.052Z,14.65
2024-02-19T17:57:44.539Z,17.85
2024-02-19T18:00:12.414Z,16.88
2024-02-19T18:02:39.371Z,12.90
2024-02-19T18:05:06.643Z,14.88
2024-02-19T18:07:33.587Z,16.08
2024-02-19T18:10:02.021Z,19.73
2024-02-19T18:12:29.013Z,14.48
2024-02-19T18:14:56.749Z,17.20
2024-02-19T18:17:23.651Z,24.67
2024-02-19T18:19:51.962Z,21.30
2024-02-19T18:22:21.684Z,20.65
2024-02-19T18:24:48.848Z,15.48
2024-02-19T18:27:16.827Z,13.00
2024-02-19T18:29:43.700Z,20.50
2024-02-19T18:32:10.743Z,23.95
2024-02-19T18:34:37.924Z,14.65
2024-02-19T18:37:05.868Z,13.65
2024-02-19T18:39:33.229Z,18.13
2024-02-19T18:42:00.457Z,12.00
2024-02-19T18:44:28.446Z,18.58
2024-02-19T18:46:55.354Z,18.65
2024-02-19T18:49:22.657Z,20.50
2024-02-19T18:51:49.708Z,13.80
2024-02-19T18:54:16.942Z,13.00
2024-02-19T18:56:43.878Z,19.35
2024-02-19T18:59:10.711Z,13.98
2024-02-19T19:01:40.097Z,20.80
2024-02-19T19:04:07.292Z,14.93
2024-02-19T19:06:34.283Z,17.25
2024-02-19T19:09:06.761Z,22.10
2024-02-19T19:11:35.471Z,15.68
2024-02-19T19:14:02.494Z,18.02
2024-02-19T19:16:29.883Z,19.95
2024-02-19T19:18:58.169Z,17.50
2024-02-19T19:21:25.237Z,18.67
2024-02-19T19:23:52.041Z,18.90
2024-02-19T19:26:18.873Z,19.05
2024-02-19T19:28:45.669Z,16.13
2024-02-19T19:31:13.442Z,19.55
2024-02-19T19:33:40.985Z,21.52
2024-02-19T19:36:07.982Z,26.67
2024-02-19T19:38:34.894Z,22.85
2024-02-19T19:41:03.446Z,22.80
2024-02-19T19:43:31.005Z,13.07
2024-02-19T19:45:58.039Z,25.75
2024-02-19T19:48:30.765Z,24.25
2024-02-19T19:50:58.612Z,17.90
2024-02-19T19:53:26.744Z,17.75
2024-02-19T19:55:54.786Z,11.57
2024-02-19T19:58:28.668Z,18.83
2024-02-19T20:00:59.773Z,20.65
2024-02-19T20:03:26.950Z,23.73
2024-02-19T20:05:54.293Z,16.92
2024-02-19T20:08:21.417Z,17.83
2024-02-19T20:10:48.935Z,17.75
2024-02-19T20:13:16.195Z,17.48
2024-02-19T20:15:43.962Z,20.40
2024-02-19T20:18:12.539Z,22.55
2024-02-19T20:20:39.974Z,22.63
2024-02-19T20:23:07.200Z,17.27
2024-02-19T20:25:34.422Z,23.70
2024-02-19T20:28:01.956Z,20.52
2024-02-19T20:30:28.875Z,23.17
2024-02-19T20:32:56.007Z,16.92
2024-02-19T20:35:23.827Z,27.10
2024-02-19T20:37:51.430Z,29.98
2024-02-19T20:40:19.421Z,17.42
2024-02-19T20:42:46.993Z,18.10
2024-02-19T20:45:14.012Z,23.35
2024-02-19T20:47:41.685Z,20.85
2024-02-19T20:50:10.654Z,21.95
2024-02-19T20:52:38.295Z,20.10
2024-02-19T20:55:06.192Z,27.48
2024-02-19T20:57:35.034Z,20.27
2024-02-19T21:00:04.170Z,21.48
2024-02-19T21:02:32.213Z,27.25
2024-02-19T21:04:59.312Z,27.60
2024-02-19T21:07:26.445Z,30.23
2024-02-19T21:09:58.215Z,27.67
2024-02-19T21:12:25.255Z,24.52
2024-02-19T21:14:52.235Z,25.95
2024-02-19T21:17:19.052Z,21.02
2024-02-19T21:19:46.093Z,19.55
2024-02-19T21:22:13.204Z,23.50
2024-02-19T21:24:40.310Z,25.63
2024-02-19T21:27:07.144Z,19.30
2024-02-19T21:29:34.003Z,23.00
2024-02-19T21:32:00.820Z,25.73
2024-02-19T21:34:27.747Z,21.08
2024-02-19T21:36:57.737Z,15.95
2024-02-19T21:39:26.248Z,20.50
2024-02-19T21:41:53.079Z,20.75
2024-02-19T21:44:21.334Z,19.10
2024-02-19T21:46:48.170Z,20.08
2024-02-19T21:49:20.905Z,21.80
2024-02-19T21:51:48.014Z,21.48
2024-02-19T21:54:15.339Z,18.13
2024-02-19T21:56:42.435Z,27.02
2024-02-19T21:59:09.290Z,15.77
2024-02-19T22:01:36.171Z,28.75
2024-02-19T22:04:03.714Z,25.77
2024-02-19T22:06:30.709Z,31.55
2024-02-19T22:08:59.956Z,21.02
2024-02-19T22:11:27.037Z,16.75
2024-02-19T22:13:53.927Z,22.92
2024-02-19T22:16:20.738Z,23.42
2024-02-19T22:18:47.635Z,16.90
2024-02-19T22:21:18.133Z,18.27
2024-02-19T22:23:45.287Z,25.75
2024-02-19T22:26:12.048Z,22.80
2024-02-19T22:28:38.852Z,22.45
2024-02-19T22:31:07.157Z,19.05
2024-02-19T22:33:34.311Z,21.17
2024-02-19T22:36:01.136Z,20.75
2024-02-19T22:38:27.926Z,20.17
2024-02-19T22:40:54.703Z,25.80
2024-02-19T22:43:21.566Z,23.05
2024-02-19T22:45:48.403Z,27.20
2024-02-19T22:48:15.437Z,29.17
2024-02-19T22:50:42.412Z,17.33
2024-02-19T22:53:09.485Z,16.27
2024-02-19T22:55:36.439Z,13.45
2024-02-19T22:58:03.916Z,21.70
2024-02-19T23:00:37.295Z,23.17
2024-02-19T23:03:05.077Z,27.75
2024-02-19T23:05:32.727Z,20.30
2024-02-19T23:08:00.507Z,22.48
2024-02-19T23:10:27.606Z,20.92
2024-02-19T23:12:54.620Z,14.30
2024-02-19T23:15:22.651Z,21.75
2024-02-19T23:17:50.126Z,21.23
2024-02-19T23:20:17.146Z,19.70
2024-02-19T23:22:47.489Z,21.05
2024-02-19T23:25:14.524Z,28.83
2024-02-19T23:27:41.616Z,20.52
2024-02-19T23:30:08.980Z,18.67
2024-02-19T23:32:38.861Z,31.65
2024-02-19T23:35:08.152Z,23.63
2024-02-19T23:37:35.178Z,21.77
2024-02-19T23:40:02.218Z,21.30
2024-02-19T23:42:29.073Z,22.85
2024-02-19T23:44:56.005Z,16.25
2024-02-19T23:47:23.823Z,25.30
2024-02-19T23:49:50.785Z,21.80
2024-02-19T23:52:17.622Z,17.85
2024-02-19T23:54:44.545Z,17.38
2024-02-19T23:57:11.447Z,23.13
2024-02-19T23:59:38.184Z,24.88
